createdAt,value
2017-04-17T00:00:40.968Z,6.34
2017-04-17T00:02:53.253Z,6.34
2017-04-17T00:05:05.626Z,6.34
2017-04-17T00:07:17.851Z,6.33
2017-04-17T00:09:30.035Z,6.33
2017-04-17T00:11:42.434Z,6.34
2017-04-17T00:13:49.703Z,6.34
2017-04-17T00:15:57.162Z,6.35
2017-04-17T00:18:09.609Z,6.34
2017-04-17T00:20:22.098Z,6.34
2017-04-17T00:22:29.528Z,6.34
2017-04-17T00:24:41.810Z,6.33
2017-04-17T00:26:54.126Z,6.33
2017-04-17T00:29:06.372Z,6.34
2017-04-17T00:31:18.545Z,6.34
2017-04-17T00:33:30.903Z,6.34
2017-04-17T00:35:43.294Z,6.34
2017-04-17T00:37:50.603Z,6.34
2017-04-17T00:40:02.904Z,6.35
2017-04-17T00:42:10.261Z,6.35
2017-04-17T00:44:22.557Z,6.36
2017-04-17T00:46:30.059Z,6.37
2017-04-17T00:48:42.225Z,6.38
2017-04-17T00:50:54.503Z,6.37
2017-04-17T00:53:01.906Z,6.37
2017-04-17T00:55:14.172Z,6.36
2017-04-17T00:57:26.447Z,6.37
2017-04-17T00:59:38.766Z,6.38
2017-04-17T01:01:50.978Z,6.37
2017-04-17T01:04:03.286Z,6.36
2017-04-17T01:06:15.513Z,6.36
2017-04-17T01:08:27.898Z,6.35
2017-04-17T01:10:40.127Z,6.36
2017-04-17T01:12:52.370Z,6.35
2017-04-17T01:15:04.543Z,6.35
2017-04-17T01:17:16.814Z,6.34
2017-04-17T01:19:27.467Z,6.33
2017-04-17T01:21:39.769Z,6.33
2017-04-17T01:23:52.263Z,6.32
2017-04-17T01:26:04.453Z,6.32
2017-04-17T01:28:11.787Z,6.33
2017-04-17T01:30:24.018Z,6.32
2017-04-17T01:32:36.667Z,6.32
2017-04-17T01:34:49.299Z,6.32
2017-04-17T01:37:01.674Z,6.33
2017-04-17T01:39:13.998Z,6.32
2017-04-17T01:41:26.331Z,6.32
2017-04-17T01:43:36.982Z,6.31
2017-04-17T01:45:49.299Z,6.32
2017-04-17T01:47:59.899Z,6.31
2017-04-17T01:50:12.323Z,6.31
2017-04-17T01:52:24.676Z,6.3
2017-04-17T01:54:36.952Z,6.3
2017-04-17T01:56:49.306Z,6.29
2017-04-17T01:58:56.676Z,6.27
2017-04-17T02:01:08.997Z,6.27
2017-04-17T02:03:16.281Z,6.27
2017-04-17T02:05:28.609Z,6.27
2017-04-17T02:07:36.416Z,6.27
2017-04-17T02:09:48.951Z,6.3
2017-04-17T02:12:01.152Z,6.33
2017-04-17T02:14:13.314Z,6.36
2017-04-17T02:16:25.522Z,6.39
2017-04-17T02:18:37.780Z,6.4
2017-04-17T02:20:50.047Z,6.42
2017-04-17T02:22:57.332Z,6.41
2017-04-17T02:25:09.515Z,6.42
2017-04-17T02:27:21.864Z,6.42
2017-04-17T02:29:34.142Z,6.44
2017-04-17T02:31:46.421Z,6.44
2017-04-17T02:33:58.692Z,6.45
2017-04-17T02:36:10.934Z,6.43
2017-04-17T02:38:34.327Z,6.42
2017-04-17T02:41:06.402Z,6.4
2017-04-17T02:43:18.834Z,6.37
2017-04-17T02:45:31.051Z,6.34
2017-04-17T02:47:43.330Z,6.3
2017-04-17T02:49:55.579Z,6.28
2017-04-17T02:52:07.867Z,6.25
2017-04-17T02:54:20.218Z,6.25
2017-04-17T02:56:32.503Z,6.26
2017-04-17T02:58:40.142Z,6.28
2017-04-17T03:00:52.390Z,6.3
2017-04-17T03:03:04.747Z,6.3
2017-04-17T03:05:17.086Z,6.3
2017-04-17T03:07:29.340Z,6.3
2017-04-17T03:09:41.673Z,6.32
2017-04-17T03:11:53.966Z,6.36
2017-04-17T03:14:04.491Z,6.4
2017-04-17T03:16:16.950Z,6.41
2017-04-17T03:18:29.703Z,6.42
2017-04-17T03:20:36.980Z,6.44
2017-04-17T03:22:49.386Z,6.46
2017-04-17T03:25:01.658Z,6.45
2017-04-17T03:27:14.000Z,6.44
2017-04-17T03:29:26.317Z,6.43
2017-04-17T03:31:39.540Z,6.42
2017-04-17T03:33:51.842Z,6.4
2017-04-17T03:36:04.179Z,6.37
2017-04-17T03:38:11.487Z,6.35
2017-04-17T03:40:22.067Z,6.34
2017-04-17T03:42:34.276Z,6.35
2017-04-17T03:44:46.560Z,6.34
2017-04-17T03:46:53.996Z,6.34
2017-04-17T03:49:06.275Z,6.34
2017-04-17T03:51:13.836Z,6.35
2017-04-17T03:53:26.997Z,6.33
2017-04-17T03:55:34.470Z,6.33
2017-04-17T03:57:46.883Z,6.33
2017-04-17T03:59:59.193Z,6.32
2017-04-17T04:02:11.519Z,6.32
2017-04-17T04:04:23.802Z,6.31
2017-04-17T04:06:36.316Z,6.3
2017-04-17T04:08:48.538Z,6.31
2017-04-17T04:11:00.752Z,6.32
2017-04-17T04:13:13.107Z,6.32
2017-04-17T04:15:25.413Z,6.31
2017-04-17T04:17:37.703Z,6.29
2017-04-17T04:19:49.828Z,6.26
2017-04-17T04:22:02.024Z,6.24
2017-04-17T04:24:14.451Z,6.26
2017-04-17T04:26:21.875Z,6.29
2017-04-17T04:28:29.855Z,6.31
2017-04-17T04:30:42.496Z,6.34
2017-04-17T04:32:54.860Z,6.36
2017-04-17T04:35:02.248Z,6.4
2017-04-17T04:37:09.492Z,6.42
2017-04-17T04:39:21.723Z,6.45
2017-04-17T04:41:34.041Z,6.51
2017-04-17T04:43:46.222Z,6.58
2017-04-17T04:45:58.489Z,6.63
2017-04-17T04:48:10.706Z,6.68
2017-04-17T04:50:18.241Z,6.71
2017-04-17T04:52:30.530Z,6.71
2017-04-17T04:54:42.782Z,6.71
2017-04-17T04:56:50.267Z,6.73
2017-04-17T04:58:57.628Z,6.76
2017-04-17T05:01:03.294Z,6.76
2017-04-17T05:03:10.828Z,6.77
2017-04-17T05:05:23.608Z,6.78
2017-04-17T05:07:36.089Z,6.81
2017-04-17T05:09:48.353Z,6.82
2017-04-17T05:12:00.685Z,6.84
2017-04-17T05:14:12.911Z,6.85
2017-04-17T05:16:25.141Z,6.81
2017-04-17T05:18:37.543Z,6.76
2017-04-17T05:20:49.773Z,6.73
2017-04-17T05:23:02.189Z,6.74
2017-04-17T05:25:14.400Z,6.81
2017-04-17T05:27:26.663Z,6.88
2017-04-17T05:29:39.220Z,6.85
2017-04-17T05:31:46.441Z,6.82
2017-04-17T05:33:53.685Z,6.92
2017-04-17T05:36:05.850Z,7.06
2017-04-17T05:38:18.122Z,7.13
2017-04-17T05:40:30.731Z,7.25
2017-04-17T05:42:43.615Z,7.5
2017-04-17T05:44:51.049Z,7.63
2017-04-17T05:47:03.377Z,7.89
2017-04-17T05:49:15.608Z,8.01
2017-04-17T05:51:28.044Z,7.96
2017-04-17T05:53:40.401Z,7.9
2017-04-17T05:55:47.737Z,7.84
2017-04-17T05:57:54.936Z,7.83
2017-04-17T06:00:07.118Z,7.82
2017-04-17T06:02:19.345Z,7.85
2017-04-17T06:04:31.596Z,7.93
2017-04-17T06:06:43.910Z,7.91
2017-04-17T06:08:56.148Z,8.03
2017-04-17T06:11:08.391Z,8.16
2017-04-17T06:13:20.986Z,8.54
2017-04-17T06:15:35.406Z,8.79
2017-04-17T06:17:50.775Z,8.71
2017-04-17T06:20:04.751Z,8.65
2017-04-17T06:22:17.147Z,8.52
2017-04-17T06:24:29.509Z,8.48
2017-04-17T06:26:41.793Z,8.47
2017-04-17T06:28:54.154Z,8.68
2017-04-17T06:31:07.059Z,8.83
2017-04-17T06:33:19.374Z,8.94
2017-04-17T06:35:32.081Z,9.21
2017-04-17T06:37:39.453Z,9.32
2017-04-17T06:39:51.803Z,9.45
2017-04-17T06:42:05.100Z,9.65
2017-04-17T06:44:36.723Z,9.74
2017-04-17T06:46:49.631Z,9.88
2017-04-17T06:49:02.902Z,10.09
2017-04-17T06:51:16.635Z,10.35
2017-04-17T06:53:29.993Z,10.38
2017-04-17T06:55:44.859Z,10.37
2017-04-17T06:57:58.414Z,10.44
2017-04-17T07:00:13.217Z,10.42
2017-04-17T07:02:24.914Z,10.45
2017-04-17T07:04:38.313Z,10.43
2017-04-17T07:06:51.888Z,10.5
2017-04-17T07:09:05.867Z,10.41
2017-04-17T07:11:18.653Z,10.34
2017-04-17T07:13:32.258Z,10.4
2017-04-17T07:15:48.275Z,10.42
2017-04-17T07:17:55.585Z,10.43
2017-04-17T07:20:07.889Z,10.53
2017-04-17T07:22:20.294Z,10.66
2017-04-17T07:24:33.869Z,10.92
2017-04-17T07:26:48.463Z,11.08
2017-04-17T07:29:02.653Z,11.15
2017-04-17T07:31:16.150Z,11.35
2017-04-17T07:33:29.953Z,11.59
2017-04-17T07:35:43.184Z,11.85
2017-04-17T07:37:57.596Z,11.97
2017-04-17T07:40:12.358Z,12.34
2017-04-17T07:42:27.504Z,12.96
2017-04-17T07:44:41.331Z,13.17
2017-04-17T07:46:55.604Z,13.76
2017-04-17T07:49:03.402Z,14.41
2017-04-17T07:51:20.142Z,14.36
2017-04-17T07:53:36.917Z,14.93
2017-04-17T07:55:51.347Z,15.28
2017-04-17T07:58:05.860Z,15.21
2017-04-17T08:00:13.492Z,15
2017-04-17T08:02:26.394Z,15.05
2017-04-17T08:04:38.997Z,14.88
2017-04-17T08:06:53.212Z,15.14
2017-04-17T08:09:08.884Z,15.5
2017-04-17T08:11:17.979Z,15.71
2017-04-17T08:13:33.173Z,15.87
2017-04-17T08:15:48.685Z,15.21
2017-04-17T08:18:00.640Z,15.07
2017-04-17T08:20:13.802Z,14.83
2017-04-17T08:22:30.057Z,14.73
2017-04-17T08:24:44.509Z,15.26
2017-04-17T08:26:57.363Z,15.1
2017-04-17T08:29:11.547Z,14.73
2017-04-17T08:31:25.804Z,14.37
2017-04-17T08:33:39.889Z,14.8
2017-04-17T08:35:56.456Z,15.68
2017-04-17T08:38:12.506Z,16.17
2017-04-17T08:40:28.103Z,16.61
2017-04-17T08:42:48.223Z,16.77
2017-04-17T08:45:14.256Z,16.85
2017-04-17T08:47:29.373Z,16.86
2017-04-17T08:49:46.273Z,17.05
2017-04-17T08:52:10.977Z,17.31
2017-04-17T08:54:39.768Z,17.24
2017-04-17T08:56:56.228Z,16.81
2017-04-17T08:59:09.796Z,15.38
2017-04-17T09:01:24.446Z,14.48
2017-04-17T09:03:38.732Z,14.55
2017-04-17T09:05:53.192Z,14.69
2017-04-17T09:08:04.332Z,14.43
2017-04-17T09:10:12.891Z,14.05
2017-04-17T09:12:25.122Z,13.52
2017-04-17T09:14:32.860Z,13.24
2017-04-17T09:16:45.699Z,13
2017-04-17T09:18:58.384Z,12.97
2017-04-17T09:21:06.027Z,13.85
2017-04-17T09:23:18.317Z,14.76
2017-04-17T09:25:30.629Z,15.61
2017-04-17T09:27:43.056Z,16.39
2017-04-17T09:29:55.335Z,16.73
2017-04-17T09:32:07.477Z,16.46
2017-04-17T09:34:19.804Z,16.26
2017-04-17T09:36:32.383Z,16.58
2017-04-17T09:38:44.762Z,16.97
2017-04-17T09:40:57.089Z,17.44
2017-04-17T09:43:09.343Z,17.91
2017-04-17T09:45:21.737Z,18.3
2017-04-17T09:47:35.270Z,18.42
2017-04-17T09:49:47.687Z,17.96
2017-04-17T09:52:00.115Z,17.17
2017-04-17T09:54:13.185Z,16.62
2017-04-17T09:56:16.186Z,15.96
2017-04-17T09:58:30.508Z,15.39
2017-04-17T10:00:39.163Z,15.06
2017-04-17T10:02:52.281Z,14.88
2017-04-17T10:05:05.500Z,14.83
2017-04-17T10:07:18.582Z,14.9
2017-04-17T10:09:32.003Z,14.95
2017-04-17T10:11:45.669Z,14.31
2017-04-17T10:14:00.690Z,14.11
2017-04-17T10:16:14.148Z,14.31
2017-04-17T10:18:28.106Z,14.03
2017-04-17T10:20:43.381Z,14.5
2017-04-17T10:22:57.985Z,14.9
2017-04-17T10:25:13.353Z,15.21
2017-04-17T10:27:26.338Z,15.27
2017-04-17T10:29:39.474Z,15.04
2017-04-17T10:31:52.812Z,14.42
2017-04-17T10:34:08.413Z,13.02
2017-04-17T10:36:22.202Z,12.36
2017-04-17T10:38:37.238Z,12.37
2017-04-17T10:40:51.022Z,12.49
2017-04-17T10:43:04.808Z,13.57
2017-04-17T10:45:18.663Z,13.86
2017-04-17T10:47:34.452Z,13.72
2017-04-17T10:49:49.012Z,13.18
2017-04-17T10:52:03.464Z,12.74
2017-04-17T10:54:17.582Z,12.55
2017-04-17T10:56:26.339Z,12.83
2017-04-17T10:58:39.068Z,13.29
2017-04-17T11:00:53.785Z,13.65
2017-04-17T11:03:08.674Z,13.68
2017-04-17T11:05:22.923Z,13.88
2017-04-17T11:07:36.336Z,14.34
2017-04-17T11:09:50.552Z,14.88
2017-04-17T11:12:04.725Z,15.17
2017-04-17T11:14:17.759Z,15.27
2017-04-17T11:16:33.261Z,15.41
2017-04-17T11:18:46.924Z,15.49
2017-04-17T11:21:00.611Z,15.22
2017-04-17T11:23:13.955Z,14.48
2017-04-17T11:25:27.487Z,14.05
2017-04-17T11:27:40.316Z,13.9
2017-04-17T11:29:52.793Z,13.93
2017-04-17T11:32:05.091Z,14.05
2017-04-17T11:34:12.834Z,14.26
2017-04-17T11:36:25.248Z,14.51
2017-04-17T11:38:37.553Z,14.98
2017-04-17T11:40:50.483Z,15.2
2017-04-17T11:43:02.889Z,15.49
2017-04-17T11:45:15.630Z,15.68
2017-04-17T11:47:28.230Z,16.04
2017-04-17T11:49:36.774Z,16.38
2017-04-17T11:51:50.009Z,16.45
2017-04-17T11:54:07.090Z,16.29
2017-04-17T11:56:22.606Z,15.98
2017-04-17T11:58:35.431Z,15.58
2017-04-17T12:00:48.889Z,15.35
2017-04-17T12:03:02.491Z,14.99
2017-04-17T12:05:15.609Z,14.82
2017-04-17T12:07:28.302Z,14.54
2017-04-17T12:09:41.111Z,14.25
2017-04-17T12:11:53.814Z,13.95
2017-04-17T12:14:01.525Z,13.67
2017-04-17T12:16:09.895Z,13.55
2017-04-17T12:18:28.082Z,13.3
2017-04-17T12:21:10.044Z,12.81
2017-04-17T12:23:22.466Z,13.05
2017-04-17T12:25:34.987Z,13.96
2017-04-17T12:27:47.612Z,14.52
2017-04-17T12:30:00.253Z,14.57
2017-04-17T12:32:12.524Z,14.16
2017-04-17T12:34:20.111Z,13.46
2017-04-17T12:36:32.437Z,12.78
2017-04-17T12:38:46.448Z,12.62
2017-04-17T12:41:04.853Z,12.48
2017-04-17T12:43:34.435Z,12.43
2017-04-17T12:46:10.641Z,12.88
2017-04-17T12:48:57.031Z,13.45
2017-04-17T12:51:42.538Z,14.29
2017-04-17T12:54:16.429Z,14.88
2017-04-17T12:56:41.541Z,15.06
2017-04-17T12:59:05.107Z,15.34
2017-04-17T13:01:56.252Z,15.33
2017-04-17T13:04:15.760Z,14.29
2017-04-17T13:06:30.537Z,13.58
2017-04-17T13:08:43.293Z,13.36
2017-04-17T13:10:56.127Z,12.65
2017-04-17T13:13:08.767Z,12.71
2017-04-17T13:15:20.967Z,12.67
2017-04-17T13:17:46.373Z,12.54
2017-04-17T13:20:08.524Z,12.8
2017-04-17T13:22:20.744Z,12.67
2017-04-17T13:24:32.984Z,12.27
2017-04-17T13:26:40.369Z,12.29
2017-04-17T13:28:47.673Z,12.77
2017-04-17T13:30:59.959Z,13.11
2017-04-17T13:33:12.238Z,13.46
2017-04-17T13:35:24.535Z,13.32
2017-04-17T13:37:36.840Z,12.83
2017-04-17T13:39:44.249Z,12.55
2017-04-17T13:41:56.767Z,12.56
2017-04-17T13:44:10.061Z,12.7
2017-04-17T13:46:23.747Z,13.26
2017-04-17T13:48:37.664Z,13.77
2017-04-17T13:50:50.914Z,13.88
2017-04-17T13:53:04.325Z,13.86
2017-04-17T13:55:17.524Z,13.7
2017-04-17T13:57:30.861Z,13.35
2017-04-17T13:59:44.787Z,13.13
2017-04-17T14:01:53.089Z,13.33
2017-04-17T14:04:06.795Z,12.98
2017-04-17T14:06:19.523Z,12.82
2017-04-17T14:08:32.451Z,12.45
2017-04-17T14:10:45.691Z,12.19
2017-04-17T14:12:58.942Z,12.29
2017-04-17T14:15:12.320Z,12.66
2017-04-17T14:17:26.193Z,13.51
2017-04-17T14:19:39.239Z,13.2
2017-04-17T14:21:52.709Z,12.7
2017-04-17T14:24:05.706Z,12.15
2017-04-17T14:26:19.055Z,12.32
2017-04-17T14:28:31.324Z,12.4
2017-04-17T14:30:43.756Z,12.87
2017-04-17T14:32:51.736Z,12.62
2017-04-17T14:34:59.670Z,12.73
2017-04-17T14:37:12.058Z,12.87
2017-04-17T14:39:24.637Z,12.7
2017-04-17T14:41:38.218Z,12.74
2017-04-17T14:43:51.715Z,12.54
2017-04-17T14:46:00.302Z,12.14
2017-04-17T14:48:08.559Z,11.97
2017-04-17T14:50:22.504Z,11.66
2017-04-17T14:52:35.222Z,11.4
2017-04-17T14:54:48.633Z,11.17
2017-04-17T14:57:02.835Z,10.92
2017-04-17T14:59:16.274Z,10.7
2017-04-17T15:01:25.043Z,10.75
2017-04-17T15:03:38.667Z,11.38
2017-04-17T15:05:52.160Z,12.11
2017-04-17T15:08:05.568Z,12.2
2017-04-17T15:10:19.010Z,11.62
2017-04-17T15:12:32.377Z,11.19
2017-04-17T15:14:45.669Z,11.22
2017-04-17T15:16:58.714Z,11.2
2017-04-17T15:19:06.756Z,10.81
2017-04-17T15:21:20.604Z,11.01
2017-04-17T15:23:33.807Z,11.17
2017-04-17T15:25:41.895Z,11.15
2017-04-17T15:27:55.339Z,11.24
2017-04-17T15:30:07.843Z,11.22
2017-04-17T15:32:20.275Z,10.96
2017-04-17T15:34:32.797Z,10.75
2017-04-17T15:36:45.280Z,10.58
2017-04-17T15:38:55.905Z,10.47
2017-04-17T15:41:08.269Z,10.26
2017-04-17T15:43:20.541Z,10.13
2017-04-17T15:45:32.980Z,10.03
2017-04-17T15:47:45.305Z,10.13
2017-04-17T15:49:52.817Z,10.1
2017-04-17T15:52:05.181Z,10.05
2017-04-17T15:54:17.452Z,10.07
2017-04-17T15:56:29.755Z,10.13
2017-04-17T15:58:56.281Z,9.99
2017-04-17T16:01:28.253Z,9.57
2017-04-17T16:03:43.742Z,9.12
2017-04-17T16:05:53.378Z,8.76
2017-04-17T16:08:00.709Z,8.46
2017-04-17T16:10:13.317Z,8.17
2017-04-17T16:12:22.624Z,8.01
2017-04-17T16:14:35.255Z,7.91
2017-04-17T16:16:42.668Z,7.85
2017-04-17T16:18:55.133Z,7.76
2017-04-17T16:21:07.560Z,7.68
2017-04-17T16:23:19.953Z,7.69
2017-04-17T16:25:32.360Z,7.98
2017-04-17T16:27:46.423Z,8.24
2017-04-17T16:29:53.846Z,8.52
2017-04-17T16:32:06.216Z,8.7
2017-04-17T16:34:14.797Z,8.65
2017-04-17T16:36:22.131Z,8.59
2017-04-17T16:38:34.526Z,8.53
2017-04-17T16:40:41.960Z,8.51
2017-04-17T16:42:48.788Z,8.55
2017-04-17T16:45:02.192Z,8.64
2017-04-17T16:47:14.643Z,8.68
2017-04-17T16:49:27.243Z,8.6
2017-04-17T16:51:38.037Z,8.57
2017-04-17T16:53:50.391Z,8.5
2017-04-17T16:56:02.634Z,8.48
2017-04-17T16:58:15.081Z,8.39
2017-04-17T17:00:27.481Z,8.29
2017-04-17T17:02:34.927Z,8.2
2017-04-17T17:07:49.894Z,8.1
2017-04-17T17:10:02.277Z,8.12
2017-04-17T17:12:15.106Z,8.07
2017-04-17T17:14:27.590Z,8.08
2017-04-17T17:16:39.984Z,8.18
2017-04-17T17:18:52.630Z,8.2
2017-04-17T17:21:09.196Z,8.16
2017-04-17T17:23:21.991Z,8.09
2017-04-17T17:25:29.789Z,8.08
2017-04-17T17:27:42.386Z,7.99
2017-04-17T17:29:44.746Z,7.88
2017-04-17T17:31:57.407Z,7.82
2017-04-17T17:34:09.872Z,7.76
2017-04-17T17:36:22.572Z,7.76
2017-04-17T17:38:36.052Z,7.76
2017-04-17T17:40:48.707Z,7.7
2017-04-17T17:43:01.824Z,7.69
2017-04-17T17:45:14.964Z,7.74
2017-04-17T17:47:27.846Z,7.68
2017-04-17T17:49:40.356Z,7.6
2017-04-17T17:51:52.738Z,7.53
2017-04-17T17:54:05.919Z,7.49
2017-04-17T17:56:19.095Z,7.47
2017-04-17T17:58:27.149Z,7.43
2017-04-17T18:00:40.272Z,7.41
2017-04-17T18:02:54.886Z,7.41
2017-04-17T18:05:08.430Z,7.4
2017-04-17T18:07:22.778Z,7.39
2017-04-17T18:09:36.208Z,7.38
2017-04-17T18:11:49.473Z,7.34
2017-04-17T18:14:04.458Z,7.26
2017-04-17T18:16:23.014Z,7.21
2017-04-17T18:18:31.081Z,7.16
2017-04-17T18:20:43.469Z,7.11
2017-04-17T18:22:56.442Z,7.08
2017-04-17T18:25:09.646Z,7.03
2017-04-17T18:27:17.287Z,7
2017-04-17T18:29:30.438Z,6.95
2017-04-17T18:31:43.756Z,6.89
2017-04-17T18:33:56.169Z,6.86
2017-04-17T18:36:09.657Z,6.83
2017-04-17T18:38:23.254Z,6.82
2017-04-17T18:40:40.808Z,6.8
2017-04-17T18:42:55.450Z,6.79
2017-04-17T18:45:08.272Z,6.76
2017-04-17T18:47:21.152Z,6.73
2017-04-17T18:49:25.028Z,6.71
2017-04-17T18:51:37.693Z,6.69
2017-04-17T18:53:50.102Z,6.67
2017-04-17T18:56:02.974Z,6.63
2017-04-17T18:58:29.429Z,6.61
2017-04-17T19:00:44.198Z,6.57
2017-04-17T19:03:00.868Z,6.52
2017-04-17T19:05:05.580Z,6.45
2017-04-17T19:07:18.162Z,6.41
2017-04-17T19:09:31.765Z,6.37
2017-04-17T19:11:44.520Z,6.32
2017-04-17T19:13:57.418Z,6.28
2017-04-17T19:16:10.315Z,6.24
2017-04-17T19:18:23.225Z,6.22
2017-04-17T19:20:35.979Z,6.19
2017-04-17T19:22:49.595Z,6.15
2017-04-17T19:25:03.311Z,6.13
2017-04-17T19:27:16.416Z,6.11
2017-04-17T19:29:23.963Z,6.09
2017-04-17T19:31:38.934Z,6.08
2017-04-17T19:33:57.190Z,6.06
2017-04-17T19:36:10.514Z,6.04
2017-04-17T19:38:21.268Z,6.04
2017-04-17T19:40:35.163Z,6.04
2017-04-17T19:42:52.279Z,6.03
2017-04-17T19:45:05.228Z,6
2017-04-17T19:47:18.035Z,5.93
2017-04-17T19:49:31.338Z,5.88
2017-04-17T19:51:39.771Z,5.88
2017-04-17T19:53:53.168Z,5.9
2017-04-17T19:56:16.717Z,5.91
2017-04-17T19:58:38.825Z,5.92
2017-04-17T20:00:46.973Z,5.91
2017-04-17T20:02:59.593Z,5.9
2017-04-17T20:05:12.652Z,5.89
2017-04-17T20:07:20.320Z,5.88
2017-04-17T20:09:34.168Z,5.87
2017-04-17T20:11:46.793Z,5.87
2017-04-17T20:13:59.792Z,5.84
2017-04-17T20:16:17.141Z,5.84
2017-04-17T20:18:30.157Z,5.82
2017-04-17T20:20:47.159Z,5.8
2017-04-17T20:22:59.980Z,5.78
2017-04-17T20:25:13.978Z,5.77
2017-04-17T20:27:27.555Z,5.75
2017-04-17T20:29:42.124Z,5.72
2017-04-17T20:31:55.157Z,5.72
2017-04-17T20:34:08.497Z,5.71
2017-04-17T20:36:21.240Z,5.7
2017-04-17T20:38:36.180Z,5.71
2017-04-17T20:40:50.645Z,5.76
2017-04-17T20:43:05.706Z,5.81
2017-04-17T20:45:18.569Z,5.84
2017-04-17T20:47:26.889Z,5.86
2017-04-17T20:49:41.034Z,5.83
2017-04-17T20:51:55.805Z,5.82
2017-04-17T20:54:09.615Z,5.83
2017-04-17T20:56:24.658Z,5.85
2017-04-17T20:58:38.717Z,5.87
2017-04-17T21:00:42.456Z,5.89
2017-04-17T21:02:56.328Z,5.93
2017-04-17T21:05:09.956Z,5.95
2017-04-17T21:07:23.815Z,5.97
2017-04-17T21:09:36.814Z,5.98
2017-04-17T21:11:49.913Z,5.98
2017-04-17T21:14:04.726Z,5.96
2017-04-17T21:16:17.189Z,5.95
2017-04-17T21:18:30.686Z,5.93
2017-04-17T21:20:43.314Z,5.91
2017-04-17T21:22:56.703Z,5.89
2017-04-17T21:25:04.569Z,5.88
2017-04-17T21:27:18.708Z,5.87
2017-04-17T21:29:31.799Z,5.84
2017-04-17T21:31:39.187Z,5.81
2017-04-17T21:33:51.463Z,5.78
2017-04-17T21:35:59.166Z,5.76
2017-04-17T21:38:11.934Z,5.74
2017-04-17T21:40:19.599Z,5.72
2017-04-17T21:42:33.104Z,5.69
2017-04-17T21:44:45.532Z,5.67
2017-04-17T21:46:57.829Z,5.62
2017-04-17T21:49:10.034Z,5.58
2017-04-17T21:51:22.587Z,5.54
2017-04-17T21:53:34.908Z,5.52
2017-04-17T21:55:47.208Z,5.51
2017-04-17T21:58:00.136Z,5.49
2017-04-17T22:00:12.796Z,5.48
2017-04-17T22:02:25.479Z,5.45
2017-04-17T22:04:37.740Z,5.41
2017-04-17T22:06:55.539Z,5.32
2017-04-17T22:09:07.976Z,5.25
2017-04-17T22:11:20.429Z,5.18
2017-04-17T22:13:32.822Z,5.14
2017-04-17T22:15:40.440Z,5.13
2017-04-17T22:17:52.948Z,5.15
2017-04-17T22:20:05.264Z,5.17
2017-04-17T22:22:17.505Z,5.16
2017-04-17T22:24:25.049Z,5.15
2017-04-17T22:26:37.487Z,5.14
2017-04-17T22:28:49.831Z,5.12
2017-04-17T22:31:02.277Z,5.09
2017-04-17T22:33:14.596Z,5.04
2017-04-17T22:35:26.859Z,5
2017-04-17T22:37:39.057Z,4.96
2017-04-17T22:39:51.329Z,4.92
2017-04-17T22:42:03.665Z,4.89
2017-04-17T22:44:15.893Z,4.88
2017-04-17T22:46:26.567Z,4.87
2017-04-17T22:48:39.167Z,4.8
2017-04-17T22:50:52.064Z,4.69
2017-04-17T22:53:02.656Z,4.6
2017-04-17T22:55:17.441Z,4.51
2017-04-17T22:57:39.750Z,4.45
2017-04-17T22:59:47.300Z,4.42
2017-04-17T23:02:00.731Z,4.41
2017-04-17T23:04:13.055Z,4.43
2017-04-17T23:06:20.450Z,4.46
2017-04-17T23:08:32.864Z,4.5
2017-04-17T23:10:40.147Z,4.53
2017-04-17T23:12:52.503Z,4.54
2017-04-17T23:15:04.936Z,4.55
2017-04-17T23:17:17.245Z,4.53
2017-04-17T23:19:27.875Z,4.49
2017-04-17T23:21:40.225Z,4.48
2017-04-17T23:23:52.673Z,4.49
2017-04-17T23:26:05.337Z,4.56
2017-04-17T23:28:13.910Z,4.63
2017-04-17T23:30:26.190Z,4.69
2017-04-17T23:32:38.457Z,4.73
2017-04-17T23:34:50.996Z,4.73
2017-04-17T23:36:58.483Z,4.71
2017-04-17T23:39:05.897Z,4.73
2017-04-17T23:41:18.277Z,4.8
2017-04-17T23:43:30.526Z,4.9
2017-04-17T23:45:42.805Z,4.99
2017-04-17T23:47:55.365Z,5.06
2017-04-17T23:50:07.715Z,5.11
2017-04-17T23:52:20.062Z,5.13
2017-04-17T23:54:27.360Z,5.13
2017-04-17T23:56:34.813Z,5.15
2017-04-17T23:58:47.540Z,5.16
